sensor_id;sensor_type;location;lat;lon;timestamp;pressure;altitude;pressure_sealevel;temperature;humidity
34983;BME280;21187;50.976;13.720;2024-01-11T00:04:24;99537.50;;;-2.56;44.00
34983;BME280;21187;50.976;13.720;2024-01-11T00:09:27;99534.13;;;-2.75;44.75
34983;BME280;21187;50.976;13.720;2024-01-11T00:14:29;99539.91;;;-2.78;45.15
34983;BME280;21187;50.976;13.720;2024-01-11T00:19:31;99532.63;;;-2.83;45.21
34983;BME280;21187;50.976;13.720;2024-01-11T00:24:33;99533.31;;;-2.88;45.36
34983;BME280;21187;50.976;13.720;2024-01-11T00:29:40;99530.91;;;-2.77;44.97
34983;BME280;21187;50.976;13.720;2024-01-11T00:34:42;99536.91;;;-2.70;44.66
34983;BME280;21187;50.976;13.720;2024-01-11T00:39:44;99524.94;;;-2.61;44.31
34983;BME280;21187;50.976;13.720;2024-01-11T00:44:46;99524.44;;;-2.81;44.65
34983;BME280;21187;50.976;13.720;2024-01-11T00:49:48;99523.03;;;-2.96;45.07
34983;BME280;21187;50.976;13.720;2024-01-11T00:54:49;99515.41;;;-3.04;45.31
34983;BME280;21187;50.976;13.720;2024-01-11T00:59:51;99504.69;;;-3.09;45.59
34983;BME280;21187;50.976;13.720;2024-01-11T01:04:53;99506.06;;;-3.07;45.40
34983;BME280;21187;50.976;13.720;2024-01-11T01:09:55;99489.00;;;-3.11;45.71
34983;BME280;21187;50.976;13.720;2024-01-11T01:14:57;99500.28;;;-3.15;45.77
34983;BME280;21187;50.976;13.720;2024-01-11T01:19:59;99493.25;;;-3.22;45.92
34983;BME280;21187;50.976;13.720;2024-01-11T01:25:01;99484.28;;;-3.21;45.85
34983;BME280;21187;50.976;13.720;2024-01-11T01:30:03;99467.09;;;-3.30;46.06
34983;BME280;21187;50.976;13.720;2024-01-11T01:35:06;99485.16;;;-3.27;46.09
34983;BME280;21187;50.976;13.720;2024-01-11T01:40:08;99492.97;;;-3.32;45.92
34983;BME280;21187;50.976;13.720;2024-01-11T01:45:11;99501.38;;;-3.35;46.16
34983;BME280;21187;50.976;13.720;2024-01-11T01:50:13;99510.50;;;-3.31;46.43
34983;BME280;21187;50.976;13.720;2024-01-11T01:55:15;99506.72;;;-3.23;46.12
34983;BME280;21187;50.976;13.720;2024-01-11T02:00:17;99505.00;;;-3.18;46.11
34983;BME280;21187;50.976;13.720;2024-01-11T02:05:19;99502.59;;;-3.19;45.87
34983;BME280;21187;50.976;13.720;2024-01-11T02:10:22;99496.22;;;-3.30;46.15
34983;BME280;21187;50.976;13.720;2024-01-11T02:15:25;99523.06;;;-3.26;46.10
34983;BME280;21187;50.976;13.720;2024-01-11T02:20:27;99513.97;;;-3.19;45.57
34983;BME280;21187;50.976;13.720;2024-01-11T02:25:29;99525.03;;;-3.22;45.53
34983;BME280;21187;50.976;13.720;2024-01-11T02:30:31;99510.22;;;-3.41;45.55
34983;BME280;21187;50.976;13.720;2024-01-11T02:35:33;99512.44;;;-3.26;45.39
34983;BME280;21187;50.976;13.720;2024-01-11T02:40:37;99506.63;;;-3.47;45.57
34983;BME280;21187;50.976;13.720;2024-01-11T02:45:39;99523.19;;;-3.52;45.55
34983;BME280;21187;50.976;13.720;2024-01-11T02:50:40;99539.22;;;-3.46;45.39
34983;BME280;21187;50.976;13.720;2024-01-11T02:55:42;99532.09;;;-3.64;45.28
34983;BME280;21187;50.976;13.720;2024-01-11T03:00:45;99539.91;;;-3.70;45.59
34983;BME280;21187;50.976;13.720;2024-01-11T03:05:47;99545.94;;;-3.81;45.56
34983;BME280;21187;50.976;13.720;2024-01-11T03:10:49;99531.63;;;-3.92;45.92
34983;BME280;21187;50.976;13.720;2024-01-11T03:15:51;99530.72;;;-3.86;46.08
34983;BME280;21187;50.976;13.720;2024-01-11T03:20:53;99520.53;;;-3.52;45.99
34983;BME280;21187;50.976;13.720;2024-01-11T03:25:55;99536.53;;;-3.28;45.46
34983;BME280;21187;50.976;13.720;2024-01-11T03:30:56;99536.06;;;-3.25;45.07
34983;BME280;21187;50.976;13.720;2024-01-11T03:35:58;99510.31;;;-3.48;45.55
34983;BME280;21187;50.976;13.720;2024-01-11T03:41:00;99496.47;;;-3.50;46.29
34983;BME280;21187;50.976;13.720;2024-01-11T03:46:03;99496.22;;;-3.30;45.55
34983;BME280;21187;50.976;13.720;2024-01-11T03:51:05;99479.88;;;-3.27;45.43
34983;BME280;21187;50.976;13.720;2024-01-11T03:56:08;99462.13;;;-3.26;45.34
34983;BME280;21187;50.976;13.720;2024-01-11T04:01:10;99452.13;;;-3.12;45.26
34983;BME280;21187;50.976;13.720;2024-01-11T04:06:22;99456.19;;;-2.98;45.00
34983;BME280;21187;50.976;13.720;2024-01-11T04:11:28;99459.75;;;-2.92;44.70
34983;BME280;21187;50.976;13.720;2024-01-11T04:16:30;99449.75;;;-3.02;44.81
34983;BME280;21187;50.976;13.720;2024-01-11T04:21:32;99446.72;;;-3.18;45.36
34983;BME280;21187;50.976;13.720;2024-01-11T04:26:34;99474.16;;;-3.00;45.31
34983;BME280;21187;50.976;13.720;2024-01-11T04:31:36;99474.16;;;-3.00;45.54
34983;BME280;21187;50.976;13.720;2024-01-11T04:36:38;99492.38;;;-2.92;45.39
34983;BME280;21187;50.976;13.720;2024-01-11T04:41:40;99501.81;;;-2.96;45.36
34983;BME280;21187;50.976;13.720;2024-01-11T04:46:43;99517.28;;;-2.93;45.03
34983;BME280;21187;50.976;13.720;2024-01-11T04:51:45;99535.84;;;-2.93;44.92
34983;BME280;21187;50.976;13.720;2024-01-11T04:56:47;99538.81;;;-2.89;44.91
34983;BME280;21187;50.976;13.720;2024-01-11T05:01:49;99530.16;;;-3.08;45.21
34983;BME280;21187;50.976;13.720;2024-01-11T05:06:51;99530.09;;;-3.51;45.74
34983;BME280;21187;50.976;13.720;2024-01-11T05:11:53;99526.09;;;-3.90;46.62
34983;BME280;21187;50.976;13.720;2024-01-11T05:16:55;99534.38;;;-4.05;46.71
34983;BME280;21187;50.976;13.720;2024-01-11T05:21:58;99505.72;;;-4.08;46.76
34983;BME280;21187;50.976;13.720;2024-01-11T05:26:59;99485.59;;;-4.09;46.73
34983;BME280;21187;50.976;13.720;2024-01-11T05:32:01;99485.94;;;-3.87;46.16
34983;BME280;21187;50.976;13.720;2024-01-11T05:37:04;99492.31;;;-3.76;45.92
34983;BME280;21187;50.976;13.720;2024-01-11T05:42:06;99508.94;;;-3.69;45.47
34983;BME280;21187;50.976;13.720;2024-01-11T05:47:08;99515.59;;;-3.78;45.75
34983;BME280;21187;50.976;13.720;2024-01-11T05:52:11;99495.22;;;-4.15;46.57
34983;BME280;21187;50.976;13.720;2024-01-11T05:57:13;99524.84;;;-4.06;46.80
34983;BME280;21187;50.976;13.720;2024-01-11T06:02:16;99514.56;;;-3.96;46.49
34983;BME280;21187;50.976;13.720;2024-01-11T06:07:18;99533.38;;;-3.86;46.14
34983;BME280;21187;50.976;13.720;2024-01-11T06:12:21;99528.81;;;-3.97;46.22
34983;BME280;21187;50.976;13.720;2024-01-11T06:17:23;99523.16;;;-4.01;46.27
34983;BME280;21187;50.976;13.720;2024-01-11T06:22:26;99520.72;;;-4.02;46.67
34983;BME280;21187;50.976;13.720;2024-01-11T06:27:28;99530.78;;;-3.92;46.07
34983;BME280;21187;50.976;13.720;2024-01-11T06:32:30;99536.31;;;-3.94;46.18
34983;BME280;21187;50.976;13.720;2024-01-11T06:37:33;99539.69;;;-4.05;46.32
34983;BME280;21187;50.976;13.720;2024-01-11T06:42:36;99553.28;;;-4.02;46.30
34983;BME280;21187;50.976;13.720;2024-01-11T06:47:38;99536.75;;;-4.15;46.63
34983;BME280;21187;50.976;13.720;2024-01-11T06:52:40;99527.47;;;-4.25;47.16
34983;BME280;21187;50.976;13.720;2024-01-11T06:57:42;99509.53;;;-4.23;47.54
34983;BME280;21187;50.976;13.720;2024-01-11T07:02:48;99496.69;;;-4.01;46.97
34983;BME280;21187;50.976;13.720;2024-01-11T07:07:50;99464.63;;;-3.92;47.11
34983;BME280;21187;50.976;13.720;2024-01-11T07:12:53;99453.91;;;-3.67;46.89
34983;BME280;21187;50.976;13.720;2024-01-11T07:17:55;99468.41;;;-3.39;46.61
34983;BME280;21187;50.976;13.720;2024-01-11T07:22:57;99462.25;;;-3.21;47.01
34983;BME280;21187;50.976;13.720;2024-01-11T07:28:00;99461.94;;;-3.01;47.12
34983;BME280;21187;50.976;13.720;2024-01-11T07:33:03;99442.59;;;-2.78;46.90
34983;BME280;21187;50.976;13.720;2024-01-11T07:38:06;99463.09;;;-2.49;46.60
34983;BME280;21187;50.976;13.720;2024-01-11T07:43:08;99455.03;;;-2.31;46.39
34983;BME280;21187;50.976;13.720;2024-01-11T07:48:11;99468.88;;;-2.29;46.66
34983;BME280;21187;50.976;13.720;2024-01-11T07:53:13;99458.41;;;-2.47;46.63
34983;BME280;21187;50.976;13.720;2024-01-11T07:58:16;99459.78;;;-2.57;46.86
34983;BME280;21187;50.976;13.720;2024-01-11T08:03:18;99453.56;;;-2.62;46.99
34983;BME280;21187;50.976;13.720;2024-01-11T08:08:20;99460.47;;;-2.61;46.86
34983;BME280;21187;50.976;13.720;2024-01-11T08:13:24;99490.56;;;-2.56;46.70
34983;BME280;21187;50.976;13.720;2024-01-11T08:18:27;99488.25;;;-2.40;46.92
34983;BME280;21187;50.976;13.720;2024-01-11T08:23:29;99500.94;;;-2.19;46.42
34983;BME280;21187;50.976;13.720;2024-01-11T08:28:31;99462.53;;;-1.75;46.34
34983;BME280;21187;50.976;13.720;2024-01-11T08:33:34;99474.38;;;-1.37;46.03
34983;BME280;21187;50.976;13.720;2024-01-11T08:38:36;99486.66;;;-1.02;45.70
34983;BME280;21187;50.976;13.720;2024-01-11T08:43:38;99499.66;;;-0.72;45.35
34983;BME280;21187;50.976;13.720;2024-01-11T08:48:41;99472.31;;;-0.67;45.48
34983;BME280;21187;50.976;13.720;2024-01-11T08:53:43;99478.09;;;-0.53;45.40
34983;BME280;21187;50.976;13.720;2024-01-11T08:58:45;99472.47;;;-0.18;45.40
34983;BME280;21187;50.976;13.720;2024-01-11T09:03:48;99473.34;;;0.10;45.08
34983;BME280;21187;50.976;13.720;2024-01-11T09:08:50;99462.00;;;0.42;45.15
34983;BME280;21187;50.976;13.720;2024-01-11T09:13:52;99462.69;;;0.60;44.95
34983;BME280;21187;50.976;13.720;2024-01-11T09:18:54;99462.19;;;0.63;44.92
34983;BME280;21187;50.976;13.720;2024-01-11T09:23:56;99477.78;;;0.76;44.77
34983;BME280;21187;50.976;13.720;2024-01-11T09:28:58;99483.25;;;0.92;44.51
34983;BME280;21187;50.976;13.720;2024-01-11T09:34:00;99500.50;;;1.11;44.25
34983;BME280;21187;50.976;13.720;2024-01-11T09:39:02;99478.50;;;1.31;44.17
34983;BME280;21187;50.976;13.720;2024-01-11T09:44:04;99481.44;;;1.30;43.96
34983;BME280;21187;50.976;13.720;2024-01-11T09:49:08;99471.84;;;1.34;43.95
34983;BME280;21187;50.976;13.720;2024-01-11T09:54:11;99499.75;;;1.54;43.74
34983;BME280;21187;50.976;13.720;2024-01-11T09:59:20;99500.63;;;1.64;43.42
34983;BME280;21187;50.976;13.720;2024-01-11T10:04:24;99482.72;;;1.60;43.50
34983;BME280;21187;50.976;13.720;2024-01-11T10:09:26;99484.84;;;1.63;43.59
34983;BME280;21187;50.976;13.720;2024-01-11T10:14:30;99465.03;;;1.54;43.61
34983;BME280;21187;50.976;13.720;2024-01-11T10:19:33;99463.91;;;1.44;43.30
34983;BME280;21187;50.976;13.720;2024-01-11T10:24:35;99458.63;;;1.49;43.33
34983;BME280;21187;50.976;13.720;2024-01-11T10:29:38;99451.94;;;1.47;43.08
34983;BME280;21187;50.976;13.720;2024-01-11T10:34:40;99444.22;;;1.51;43.30
34983;BME280;21187;50.976;13.720;2024-01-11T10:39:43;99438.63;;;1.57;42.95
34983;BME280;21187;50.976;13.720;2024-01-11T10:44:46;99436.22;;;1.61;43.05
34983;BME280;21187;50.976;13.720;2024-01-11T10:49:51;99438.41;;;1.64;42.87
34983;BME280;21187;50.976;13.720;2024-01-11T10:54:56;99426.16;;;1.73;42.98
34983;BME280;21187;50.976;13.720;2024-01-11T11:00:00;99414.41;;;1.79;42.86
34983;BME280;21187;50.976;13.720;2024-01-11T11:05:06;99411.28;;;1.88;42.84
34983;BME280;21187;50.976;13.720;2024-01-11T11:10:12;99391.56;;;2.09;42.88
34983;BME280;21187;50.976;13.720;2024-01-11T11:15:16;99401.25;;;2.26;42.38
34983;BME280;21187;50.976;13.720;2024-01-11T11:20:18;99388.97;;;2.35;42.35
34983;BME280;21187;50.976;13.720;2024-01-11T11:25:24;99383.63;;;2.35;42.54
34983;BME280;21187;50.976;13.720;2024-01-11T11:30:27;99371.59;;;2.38;42.50
34983;BME280;21187;50.976;13.720;2024-01-11T11:35:29;99370.25;;;2.30;42.22
34983;BME280;21187;50.976;13.720;2024-01-11T11:40:32;99358.72;;;2.29;42.17
34983;BME280;21187;50.976;13.720;2024-01-11T11:45:35;99360.09;;;2.42;42.07
34983;BME280;21187;50.976;13.720;2024-01-11T11:50:39;99349.41;;;2.58;41.62
34983;BME280;21187;50.976;13.720;2024-01-11T11:55:41;99341.91;;;2.80;41.71
34983;BME280;21187;50.976;13.720;2024-01-11T12:00:43;99342.41;;;2.98;41.08
34983;BME280;21187;50.976;13.720;2024-01-11T12:05:46;99353.06;;;3.24;40.89
34983;BME280;21187;50.976;13.720;2024-01-11T12:10:48;99365.31;;;3.40;40.20
34983;BME280;21187;50.976;13.720;2024-01-11T12:15:50;99338.06;;;3.33;39.34
34983;BME280;21187;50.976;13.720;2024-01-11T12:20:52;99351.72;;;3.31;39.26
34983;BME280;21187;50.976;13.720;2024-01-11T12:25:57;99342.84;;;3.36;38.62
34983;BME280;21187;50.976;13.720;2024-01-11T12:30:59;99342.81;;;3.46;38.04
34983;BME280;21187;50.976;13.720;2024-01-11T12:36:02;99337.97;;;3.54;37.71
34983;BME280;21187;50.976;13.720;2024-01-11T12:41:04;99333.41;;;3.59;37.85
34983;BME280;21187;50.976;13.720;2024-01-11T12:46:07;99326.56;;;3.88;36.87
34983;BME280;21187;50.976;13.720;2024-01-11T12:51:09;99341.50;;;3.99;36.82
34983;BME280;21187;50.976;13.720;2024-01-11T12:56:21;99322.75;;;3.99;35.98
34983;BME280;21187;50.976;13.720;2024-01-11T13:01:25;99308.34;;;3.90;36.06
34983;BME280;21187;50.976;13.720;2024-01-11T13:06:27;99324.47;;;3.79;35.02
34983;BME280;21187;50.976;13.720;2024-01-11T13:11:29;99306.16;;;3.92;35.37
34983;BME280;21187;50.976;13.720;2024-01-11T13:16:31;99327.25;;;4.43;35.08
34983;BME280;21187;50.976;13.720;2024-01-11T13:21:33;99338.69;;;4.89;35.01
34983;BME280;21187;50.976;13.720;2024-01-11T13:26:35;99327.81;;;5.28;34.27
34983;BME280;21187;50.976;13.720;2024-01-11T13:31:40;99324.22;;;5.62;33.80
34983;BME280;21187;50.976;13.720;2024-01-11T13:36:43;99313.13;;;6.26;33.27
34983;BME280;21187;50.976;13.720;2024-01-11T13:41:45;99299.31;;;5.95;32.78
34983;BME280;21187;50.976;13.720;2024-01-11T13:46:47;99301.03;;;4.99;33.28
34983;BME280;21187;50.976;13.720;2024-01-11T13:51:49;99305.31;;;4.41;34.43
34983;BME280;21187;50.976;13.720;2024-01-11T13:57:01;99312.59;;;3.96;34.13
34983;BME280;21187;50.976;13.720;2024-01-11T14:02:04;99319.66;;;3.76;34.77
34983;BME280;21187;50.976;13.720;2024-01-11T14:07:06;99310.91;;;3.60;34.96
34983;BME280;21187;50.976;13.720;2024-01-11T14:12:09;99308.75;;;4.07;34.37
34983;BME280;21187;50.976;13.720;2024-01-11T14:17:11;99317.97;;;4.94;33.79
34983;BME280;21187;50.976;13.720;2024-01-11T14:22:13;99322.91;;;4.13;33.57
34983;BME280;21187;50.976;13.720;2024-01-11T14:27:15;99324.03;;;3.62;34.45
34983;BME280;21187;50.976;13.720;2024-01-11T14:32:17;99312.97;;;3.03;34.35
34983;BME280;21187;50.976;13.720;2024-01-11T14:37:35;99316.22;;;2.79;35.30
34983;BME280;21187;50.976;13.720;2024-01-11T14:42:38;99333.88;;;2.75;34.76
34983;BME280;21187;50.976;13.720;2024-01-11T14:47:40;99324.25;;;2.48;35.02
34983;BME280;21187;50.976;13.720;2024-01-11T14:52:42;99336.81;;;2.22;34.41
34983;BME280;21187;50.976;13.720;2024-01-11T14:57:45;99335.72;;;2.08;34.60
34983;BME280;21187;50.976;13.720;2024-01-11T15:02:47;99321.56;;;2.02;34.75
34983;BME280;21187;50.976;13.720;2024-01-11T15:07:51;99323.13;;;2.03;34.74
34983;BME280;21187;50.976;13.720;2024-01-11T15:12:53;99327.38;;;1.89;35.08
34983;BME280;21187;50.976;13.720;2024-01-11T15:17:55;99326.00;;;1.65;35.42
34983;BME280;21187;50.976;13.720;2024-01-11T15:22:57;99322.53;;;1.65;35.39
34983;BME280;21187;50.976;13.720;2024-01-11T15:27:59;99320.91;;;1.59;35.65
34983;BME280;21187;50.976;13.720;2024-01-11T15:33:01;99317.63;;;1.41;36.04
34983;BME280;21187;50.976;13.720;2024-01-11T15:38:03;99327.19;;;1.32;36.28
34983;BME280;21187;50.976;13.720;2024-01-11T15:43:05;99337.34;;;1.35;36.28
34983;BME280;21187;50.976;13.720;2024-01-11T15:48:08;99338.34;;;1.24;36.77
34983;BME280;21187;50.976;13.720;2024-01-11T15:53:10;99345.75;;;1.11;37.30
34983;BME280;21187;50.976;13.720;2024-01-11T15:58:12;99349.34;;;0.90;37.56
34983;BME280;21187;50.976;13.720;2024-01-11T16:03:14;99345.50;;;0.70;37.75
34983;BME280;21187;50.976;13.720;2024-01-11T16:08:16;99351.84;;;0.64;38.35
34983;BME280;21187;50.976;13.720;2024-01-11T16:13:19;99351.75;;;0.54;38.73
34983;BME280;21187;50.976;13.720;2024-01-11T16:18:24;99327.72;;;0.48;39.09
34983;BME280;21187;50.976;13.720;2024-01-11T16:23:26;99327.41;;;0.45;39.33
34983;BME280;21187;50.976;13.720;2024-01-11T16:28:29;99333.97;;;0.32;39.80
34983;BME280;21187;50.976;13.720;2024-01-11T16:33:32;99354.25;;;0.33;39.69
34983;BME280;21187;50.976;13.720;2024-01-11T16:38:34;99376.09;;;0.35;39.77
34983;BME280;21187;50.976;13.720;2024-01-11T16:43:36;99410.34;;;0.48;39.55
34983;BME280;21187;50.976;13.720;2024-01-11T16:48:38;99409.88;;;0.57;39.35
34983;BME280;21187;50.976;13.720;2024-01-11T16:53:41;99426.38;;;0.54;39.66
34983;BME280;21187;50.976;13.720;2024-01-11T16:58:45;99416.53;;;0.54;39.79
34983;BME280;21187;50.976;13.720;2024-01-11T17:03:47;99410.91;;;0.51;39.96
34983;BME280;21187;50.976;13.720;2024-01-11T17:08:51;99422.88;;;0.48;39.93
34983;BME280;21187;50.976;13.720;2024-01-11T17:13:53;99426.59;;;0.47;40.18
34983;BME280;21187;50.976;13.720;2024-01-11T17:18:57;99419.84;;;0.39;40.31
34983;BME280;21187;50.976;13.720;2024-01-11T17:24:00;99431.22;;;0.29;40.66
34983;BME280;21187;50.976;13.720;2024-01-11T17:29:03;99434.56;;;0.20;41.25
34983;BME280;21187;50.976;13.720;2024-01-11T17:34:06;99450.59;;;0.25;41.29
34983;BME280;21187;50.976;13.720;2024-01-11T17:39:08;99439.94;;;0.25;41.46
34983;BME280;21187;50.976;13.720;2024-01-11T17:44:12;99438.31;;;0.24;41.61
34983;BME280;21187;50.976;13.720;2024-01-11T17:49:15;99455.50;;;0.33;41.39
34983;BME280;21187;50.976;13.720;2024-01-11T17:54:17;99475.31;;;0.42;41.36
34983;BME280;21187;50.976;13.720;2024-01-11T17:59:20;99486.53;;;0.44;41.20
34983;BME280;21187;50.976;13.720;2024-01-11T18:04:23;99485.09;;;0.37;41.36
34983;BME280;21187;50.976;13.720;2024-01-11T18:09:25;99504.53;;;0.32;41.51
34983;BME280;21187;50.976;13.720;2024-01-11T18:14:28;99514.41;;;0.14;42.10
34983;BME280;21187;50.976;13.720;2024-01-11T18:19:29;99520.09;;;0.01;42.38
34983;BME280;21187;50.976;13.720;2024-01-11T18:24:31;99506.25;;;-0.01;42.42
34983;BME280;21187;50.976;13.720;2024-01-11T18:29:36;99511.25;;;-0.05;42.55
34983;BME280;21187;50.976;13.720;2024-01-11T18:34:38;99509.16;;;-0.03;42.44
34983;BME280;21187;50.976;13.720;2024-01-11T18:39:40;99511.56;;;-0.01;42.80
34983;BME280;21187;50.976;13.720;2024-01-11T18:44:45;99519.44;;;-0.11;43.07
34983;BME280;21187;50.976;13.720;2024-01-11T18:49:47;99519.69;;;-0.30;44.31
34983;BME280;21187;50.976;13.720;2024-01-11T18:54:49;99518.84;;;-0.13;43.95
34983;BME280;21187;50.976;13.720;2024-01-11T19:00:05;99521.22;;;0.05;43.62
34983;BME280;21187;50.976;13.720;2024-01-11T19:05:08;99520.25;;;0.11;43.79
34983;BME280;21187;50.976;13.720;2024-01-11T19:10:10;99525.19;;;0.03;44.02
34983;BME280;21187;50.976;13.720;2024-01-11T19:15:13;99526.16;;;0.13;44.19
34983;BME280;21187;50.976;13.720;2024-01-11T19:20:15;99523.28;;;-0.02;44.74
34983;BME280;21187;50.976;13.720;2024-01-11T19:25:17;99522.09;;;-0.11;45.36
34983;BME280;21187;50.976;13.720;2024-01-11T19:30:20;99529.69;;;-0.20;46.24
34983;BME280;21187;50.976;13.720;2024-01-11T19:35:22;99532.66;;;-0.17;46.38
34983;BME280;21187;50.976;13.720;2024-01-11T19:40:24;99530.25;;;-0.18;46.50
34983;BME280;21187;50.976;13.720;2024-01-11T19:45:27;99527.25;;;-0.22;47.24
34983;BME280;21187;50.976;13.720;2024-01-11T19:50:29;99517.66;;;-0.23;47.08
34983;BME280;21187;50.976;13.720;2024-01-11T19:55:34;99507.84;;;-0.22;47.62
34983;BME280;21187;50.976;13.720;2024-01-11T20:00:37;99523.41;;;-0.31;48.03
34983;BME280;21187;50.976;13.720;2024-01-11T20:05:43;99524.28;;;-0.25;48.55
34983;BME280;21187;50.976;13.720;2024-01-11T20:10:45;99512.59;;;-0.24;48.44
34983;BME280;21187;50.976;13.720;2024-01-11T20:15:48;99504.69;;;-0.36;49.72
34983;BME280;21187;50.976;13.720;2024-01-11T20:20:49;99511.72;;;-0.30;49.05
34983;BME280;21187;50.976;13.720;2024-01-11T20:25:53;99498.56;;;-0.20;49.22
34983;BME280;21187;50.976;13.720;2024-01-11T20:30:56;99495.81;;;-0.25;49.59
34983;BME280;21187;50.976;13.720;2024-01-11T20:35:59;99490.50;;;-0.25;49.86
34983;BME280;21187;50.976;13.720;2024-01-11T20:41:08;99496.44;;;-0.18;49.87
34983;BME280;21187;50.976;13.720;2024-01-11T20:46:11;99499.16;;;-0.12;49.57
34983;BME280;21187;50.976;13.720;2024-01-11T20:51:15;99486.44;;;-0.10;49.73
34983;BME280;21187;50.976;13.720;2024-01-11T20:56:21;99494.66;;;-0.12;49.91
34983;BME280;21187;50.976;13.720;2024-01-11T21:01:23;99502.41;;;-0.10;49.89
34983;BME280;21187;50.976;13.720;2024-01-11T21:06:25;99489.63;;;-0.08;50.12
34983;BME280;21187;50.976;13.720;2024-01-11T21:11:28;99491.19;;;-0.12;50.89
34983;BME280;21187;50.976;13.720;2024-01-11T21:16:30;99494.16;;;-0.09;50.41
34983;BME280;21187;50.976;13.720;2024-01-11T21:21:33;99501.56;;;-0.11;51.22
34983;BME280;21187;50.976;13.720;2024-01-11T21:26:34;99505.94;;;-0.05;50.69
34983;BME280;21187;50.976;13.720;2024-01-11T21:31:36;99506.88;;;0.06;50.10
34983;BME280;21187;50.976;13.720;2024-01-11T21:36:38;99512.25;;;0.11;50.37
34983;BME280;21187;50.976;13.720;2024-01-11T21:41:40;99526.69;;;0.15;50.57
34983;BME280;21187;50.976;13.720;2024-01-11T21:46:42;99531.84;;;0.22;50.55
34983;BME280;21187;50.976;13.720;2024-01-11T21:51:45;99541.25;;;0.30;50.26
34983;BME280;21187;50.976;13.720;2024-01-11T21:56:48;99548.78;;;0.33;50.21
34983;BME280;21187;50.976;13.720;2024-01-11T22:01:50;99554.22;;;0.43;49.85
34983;BME280;21187;50.976;13.720;2024-01-11T22:06:52;99530.66;;;0.35;50.57
34983;BME280;21187;50.976;13.720;2024-01-11T22:11:57;99539.22;;;0.37;50.30
34983;BME280;21187;50.976;13.720;2024-01-11T22:16:59;99537.66;;;0.41;50.72
34983;BME280;21187;50.976;13.720;2024-01-11T22:22:01;99532.09;;;0.43;50.58
34983;BME280;21187;50.976;13.720;2024-01-11T22:27:05;99537.09;;;0.39;50.78
34983;BME280;21187;50.976;13.720;2024-01-11T22:32:07;99540.81;;;0.38;50.95
34983;BME280;21187;50.976;13.720;2024-01-11T22:37:09;99546.47;;;0.42;50.71
34983;BME280;21187;50.976;13.720;2024-01-11T22:42:11;99542.38;;;0.56;50.22
34983;BME280;21187;50.976;13.720;2024-01-11T22:47:13;99544.78;;;0.58;50.34
34983;BME280;21187;50.976;13.720;2024-01-11T22:52:15;99549.50;;;0.51;51.00
34983;BME280;21187;50.976;13.720;2024-01-11T22:57:17;99552.66;;;0.47;51.29
34983;BME280;21187;50.976;13.720;2024-01-11T23:02:19;99544.66;;;0.47;51.14
34983;BME280;21187;50.976;13.720;2024-01-11T23:07:21;99554.28;;;0.48;51.48
34983;BME280;21187;50.976;13.720;2024-01-11T23:12:22;99549.97;;;0.47;51.56
34983;BME280;21187;50.976;13.720;2024-01-11T23:17:24;99544.66;;;0.47;51.78
34983;BME280;21187;50.976;13.720;2024-01-11T23:22:26;99543.16;;;0.57;51.20
34983;BME280;21187;50.976;13.720;2024-01-11T23:27:28;99542.06;;;0.53;51.83
34983;BME280;21187;50.976;13.720;2024-01-11T23:32:30;99538.34;;;0.54;51.76
34983;BME280;21187;50.976;13.720;2024-01-11T23:37:32;99539.16;;;0.54;52.31
34983;BME280;21187;50.976;13.720;2024-01-11T23:42:34;99523.56;;;0.68;51.57
34983;BME280;21187;50.976;13.720;2024-01-11T23:47:36;99527.91;;;0.74;51.51
34983;BME280;21187;50.976;13.720;2024-01-11T23:52:38;99525.25;;;0.74;51.82
34983;BME280;21187;50.976;13.720;2024-01-11T23:57:42;99524.19;;;0.75;51.51
